Time;durP1;ratioP1;P1;durP2;ratioP2;P2;SDS_P1;SDS_P2;PMS_P1;PMS_P2;Temp;Humidity;BMP_temperature;BMP_pressure;BME280_temperature;BME280_humidity;BME280_pressure;Samples;Min_cycle;Max_cycle;Signal;HPM_P1;HPM_P2
2021/10/29 00:01:57;;;;;;;15.90;12.55;;;;;;;5.41;nan;100452.19;5030786;28;20037;-76
2021/10/29 00:04:22;;;;;;;17.95;13.57;;;;;;;5.39;nan;100450.66;5029237;28;20084;-76
2021/10/29 00:06:47;;;;;;;19.20;14.75;;;;;;;5.36;nan;100446.44;5029589;28;20033;-76
2021/10/29 00:09:13;;;;;;;17.75;13.35;;;;;;;5.37;nan;100452.56;5031085;28;20025;-76
2021/10/29 00:11:38;;;;;;;15.15;11.82;;;;;;;5.34;nan;100445.75;5029260;28;20083;-76
2021/10/29 00:14:04;;;;;;;14.90;10.18;;;;;;;5.39;nan;100451.47;5030791;28;20115;-76
2021/10/29 00:16:29;;;;;;;16.90;13.15;;;;;;;5.39;nan;100455.91;5030269;28;20044;-76
2021/10/29 00:18:54;;;;;;;21.35;12.90;;;;;;;5.42;nan;100453.84;5030693;28;20033;-76
2021/10/29 00:21:19;;;;;;;16.33;13.10;;;;;;;5.33;nan;100454.56;5029520;28;20041;-76
2021/10/29 00:23:45;;;;;;;15.82;12.85;;;;;;;5.28;nan;100460.16;5030714;28;20033;-76
2021/10/29 00:26:10;;;;;;;26.73;15.20;;;;;;;5.32;nan;100458.16;5030090;28;20121;-76
2021/10/29 00:28:35;;;;;;;17.38;13.68;;;;;;;5.25;nan;100468.28;5030315;28;20125;-76
2021/10/29 00:31:01;;;;;;;30.70;15.30;;;;;;;5.27;nan;100461.13;5030489;28;20037;-76
2021/10/29 00:33:26;;;;;;;16.77;13.70;;;;;;;5.28;nan;100461.97;5028919;28;20029;-76
2021/10/29 00:35:51;;;;;;;15.60;12.55;;;;;;;5.29;nan;100467.09;5030359;28;20037;-76
2021/10/29 00:38:17;;;;;;;14.90;11.63;;;;;;;5.31;nan;100470.44;5028472;28;20129;-77
2021/10/29 00:40:42;;;;;;;19.55;13.48;;;;;;;5.36;nan;100472.66;5029232;28;20083;-76
2021/10/29 00:43:09;;;;;;;15.63;11.02;;;;;;;5.40;nan;100468.03;5029211;28;20402;-76
2021/10/29 00:45:34;;;;;;;14.18;11.60;;;;;;;5.41;nan;100469.69;5030248;28;20470;-76
2021/10/29 00:48:00;;;;;;;16.90;11.90;;;;;;;5.49;nan;100467.31;5030109;28;20053;-76
2021/10/29 00:50:25;;;;;;;18.70;11.25;;;;;;;5.53;nan;100461.72;5028616;28;20057;-76
2021/10/29 00:52:51;;;;;;;14.30;11.90;;;;;;;5.49;nan;100462.06;5030143;28;20037;-76
2021/10/29 00:55:16;;;;;;;18.33;12.48;;;;;;;5.47;nan;100464.81;5030406;28;20053;-76
2021/10/29 00:57:42;;;;;;;15.38;11.50;;;;;;;5.46;nan;100468.41;5030321;28;20029;-76
2021/10/29 01:00:09;;;;;;;19.30;11.98;;;;;;;5.47;nan;100469.22;5032382;28;20030;-77
2021/10/29 01:02:35;;;;;;;22.15;12.48;;;;;;;5.48;nan;100463.00;5030379;28;20120;-76
2021/10/29 01:05:03;;;;;;;17.67;12.00;;;;;;;5.47;nan;100469.22;5031278;28;20553;-76
2021/10/29 01:07:29;;;;;;;17.33;11.43;;;;;;;5.42;nan;100466.13;5031576;28;20413;-76
2021/10/29 01:09:55;;;;;;;13.30;10.85;;;;;;;5.36;nan;100466.59;5031888;28;20041;-76
2021/10/29 01:12:20;;;;;;;14.55;10.85;;;;;;;5.41;nan;100465.31;5031179;28;20048;-76
2021/10/29 01:14:58;;;;;;;18.25;12.68;;;;;;;5.44;nan;100465.06;5029937;28;20048;-76
2021/10/29 01:17:25;;;;;;;15.73;12.00;;;;;;;5.45;nan;100466.72;5030055;28;20080;-76
2021/10/29 01:19:53;;;;;;;22.55;13.00;;;;;;;5.55;nan;100469.44;5029940;28;20025;-76
2021/10/29 01:22:18;;;;;;;76.78;18.40;;;;;;;5.67;nan;100465.03;5029206;28;20030;-76
2021/10/29 01:24:44;;;;;;;18.90;13.95;;;;;;;5.56;nan;100468.50;5029636;28;20279;-76
2021/10/29 01:27:10;;;;;;;23.83;14.65;;;;;;;5.53;nan;100466.13;5029726;28;20040;-76
2021/10/29 01:29:36;;;;;;;19.15;13.93;;;;;;;5.53;nan;100456.47;5029340;28;20091;-76
2021/10/29 01:32:02;;;;;;;19.00;14.13;;;;;;;5.57;nan;100456.22;5029393;28;20117;-76
2021/10/29 01:34:29;;;;;;;25.77;14.43;;;;;;;5.64;nan;100460.84;5029398;28;20673;-76
2021/10/29 01:36:54;;;;;;;35.00;15.85;;;;;;;5.64;nan;100455.59;5029692;28;20038;-77
2021/10/29 01:39:19;;;;;;;19.15;13.95;;;;;;;5.60;nan;100450.72;5029942;28;20029;-76
2021/10/29 01:41:45;;;;;;;14.40;11.55;;;;;;;5.58;nan;100450.88;5033700;28;20033;-76
2021/10/29 01:44:10;;;;;;;19.65;11.23;;;;;;;5.66;nan;100452.88;5031747;28;20491;-76
2021/10/29 01:46:36;;;;;;;16.30;11.32;;;;;;;5.71;nan;100446.28;5033376;28;20033;-76
2021/10/29 01:49:01;;;;;;;37.47;16.10;;;;;;;5.71;nan;100451.53;5033459;28;20086;-76
2021/10/29 01:51:27;;;;;;;45.85;16.30;;;;;;;5.71;nan;100451.53;5033527;28;20049;-75
2021/10/29 01:53:52;;;;;;;19.92;13.75;;;;;;;5.65;nan;100457.28;5033414;28;20175;-76
2021/10/29 01:56:17;;;;;;;18.20;13.10;;;;;;;5.66;nan;100442.38;5031374;28;20026;-76
2021/10/29 01:58:43;;;;;;;14.93;11.57;;;;;;;5.72;nan;100449.75;5033355;28;20038;-76
2021/10/29 02:01:08;;;;;;;92.68;18.70;;;;;;;5.81;nan;100450.81;5033606;28;20052;-76
2021/10/29 02:03:34;;;;;;;25.48;13.48;;;;;;;5.80;nan;100442.09;5033616;28;20111;-78
2021/10/29 02:05:59;;;;;;;20.40;13.60;;;;;;;5.77;nan;100438.88;5033123;28;20034;-76
2021/10/29 02:08:27;;;;;;;21.17;14.60;;;;;;;5.73;nan;100433.06;5032915;28;20479;-76
2021/10/29 02:10:53;;;;;;;38.50;16.55;;;;;;;5.73;nan;100425.19;5033182;28;20043;-76
2021/10/29 02:13:20;;;;;;;63.50;19.10;;;;;;;5.82;nan;100421.00;5031535;28;20393;-76
2021/10/29 02:15:47;;;;;;;27.35;15.77;;;;;;;5.84;nan;100424.31;5033001;28;20495;-76
2021/10/29 02:18:12;;;;;;;33.85;16.90;;;;;;;5.88;nan;100421.31;5032466;28;20043;-76
2021/10/29 02:20:37;;;;;;;24.58;15.98;;;;;;;5.86;nan;100423.22;5032933;28;20088;-76
2021/10/29 02:23:03;;;;;;;21.83;16.05;;;;;;;5.83;nan;100418.22;5032803;28;20030;-76
2021/10/29 02:25:29;;;;;;;48.60;18.38;;;;;;;5.86;nan;100412.72;5032774;28;20041;-76
2021/10/29 02:27:54;;;;;;;31.73;15.45;;;;;;;5.87;nan;100422.28;5032689;28;20125;-76
2021/10/29 02:30:20;;;;;;;26.67;14.68;;;;;;;5.91;nan;100415.84;5032236;28;20465;-76
2021/10/29 02:32:45;;;;;;;51.35;18.05;;;;;;;5.94;nan;100414.78;5032703;28;20079;-76
2021/10/29 02:35:10;;;;;;;81.57;23.30;;;;;;;5.99;nan;100412.63;5032245;28;20095;-76
2021/10/29 02:37:36;;;;;;;57.53;21.05;;;;;;;5.98;nan;100418.81;5032359;28;20041;-76
2021/10/29 02:40:02;;;;;;;35.95;19.02;;;;;;;5.91;nan;100426.34;5031019;28;20044;-76
2021/10/29 02:42:27;;;;;;;45.17;20.85;;;;;;;5.96;nan;100418.13;5031850;28;20057;-76
2021/10/29 02:44:53;;;;;;;70.15;23.02;;;;;;;6.05;nan;100421.78;5030728;28;20040;-76
2021/10/29 02:47:18;;;;;;;25.52;17.23;;;;;;;5.94;nan;100409.53;5032636;28;20407;-76
2021/10/29 02:49:44;;;;;;;21.27;14.68;;;;;;;5.97;nan;100416.34;5032307;28;20030;-77
2021/10/29 02:52:09;;;;;;;21.92;15.68;;;;;;;5.95;nan;100413.81;5030603;28;20231;-76
2021/10/29 02:54:34;;;;;;;20.98;14.30;;;;;;;5.96;nan;100412.88;5032261;28;20033;-76
2021/10/29 02:57:00;;;;;;;18.45;12.88;;;;;;;6.04;nan;100412.25;5031156;28;20037;-76
2021/10/29 02:59:25;;;;;;;30.80;15.60;;;;;;;6.11;nan;100414.25;5032178;28;20542;-76
2021/10/29 03:01:50;;;;;;;27.25;14.98;;;;;;;6.12;nan;100413.25;5032021;28;20041;-76
2021/10/29 03:04:16;;;;;;;21.23;14.27;;;;;;;6.12;nan;100408.00;5030416;28;20030;-76
2021/10/29 03:06:41;;;;;;;22.02;14.45;;;;;;;6.13;nan;100420.19;5032015;28;20437;-76
2021/10/29 03:09:07;;;;;;;24.45;13.32;;;;;;;6.18;nan;100413.75;5032042;28;20516;-76
2021/10/29 03:11:32;;;;;;;29.20;16.05;;;;;;;6.19;nan;100420.66;5031801;28;20168;-76
2021/10/29 03:13:57;;;;;;;30.02;17.60;;;;;;;6.19;nan;100412.78;5031691;28;20053;-76
2021/10/29 03:16:23;;;;;;;28.20;17.55;;;;;;;6.18;nan;100411.13;5031197;28;20030;-76
2021/10/29 03:18:48;;;;;;;22.10;14.70;;;;;;;6.04;nan;100409.63;5030299;28;20254;-76
2021/10/29 03:21:14;;;;;;;31.23;16.23;;;;;;;6.10;nan;100399.47;5031699;28;20034;-76
2021/10/29 03:23:39;;;;;;;28.40;16.33;;;;;;;6.13;nan;100391.31;5031971;28;20045;-76
2021/10/29 03:26:05;;;;;;;21.08;14.60;;;;;;;6.08;nan;100392.66;5031227;28;20025;-76
2021/10/29 03:28:30;;;;;;;30.48;15.52;;;;;;;6.08;nan;100398.75;5031401;28;20596;-76
2021/10/29 03:30:56;;;;;;;19.95;14.82;;;;;;;5.99;nan;100396.88;5031598;28;20042;-76
2021/10/29 03:33:21;;;;;;;27.67;14.77;;;;;;;6.10;nan;100385.47;5030286;28;20455;-76
2021/10/29 03:35:47;;;;;;;21.15;14.20;;;;;;;6.10;nan;100394.22;5031395;28;20087;-76
2021/10/29 03:40:46;;;;;;;34.63;18.23;;;;;;;6.16;nan;100383.19;5031697;28;20494;-76
2021/10/29 03:45:56;;;;;;;26.13;16.70;;;;;;;5.99;nan;100368.00;5031260;28;20446;-76
2021/10/29 03:51:12;;;;;;;35.53;17.70;;;;;;;5.89;nan;100385.44;5031479;28;20681;-75
2021/10/29 03:56:30;;;;;;;33.85;16.80;;;;;;;5.81;nan;100387.84;5022021;28;20040;-76
2021/10/29 03:58:57;;;;;;;40.70;16.38;;;;;;;5.68;nan;100388.84;5029746;28;20029;-76
2021/10/29 04:01:23;;;;;;;51.13;17.08;;;;;;;5.66;nan;100389.91;5031058;28;20040;-76
2021/10/29 04:03:49;;;;;;;30.55;14.25;;;;;;;5.60;nan;100398.25;5030468;28;20057;-76
2021/10/29 04:06:15;;;;;;;21.63;14.90;;;;;;;5.64;nan;100402.31;5030596;28;20115;-75
2021/10/29 04:08:41;;;;;;;17.23;13.40;;;;;;;5.51;nan;100395.44;5030819;28;20034;-76
2021/10/29 04:11:07;;;;;;;25.23;16.00;;;;;;;5.57;nan;100404.59;5031049;28;20029;-76
2021/10/29 04:13:34;;;;;;;26.65;15.95;;;;;;;5.53;nan;100408.44;5030746;28;20035;-76
2021/10/29 04:16:02;;;;;;;23.50;14.35;;;;;;;5.45;nan;100409.03;5030729;28;20488;-75
2021/10/29 04:18:27;;;;;;;21.00;14.77;;;;;;;5.49;nan;100399.13;5030352;28;20033;-76
2021/10/29 04:20:53;;;;;;;18.20;13.25;;;;;;;5.43;nan;100400.44;5030887;28;20566;-76
2021/10/29 04:23:18;;;;;;;18.30;12.90;;;;;;;5.44;nan;100407.38;5030761;28;20422;-76
2021/10/29 04:25:44;;;;;;;17.38;12.55;;;;;;;5.47;nan;100407.13;5030347;28;20029;-76
2021/10/29 04:28:12;;;;;;;17.30;12.85;;;;;;;5.46;nan;100396.75;5030104;28;20056;-76
2021/10/29 04:30:38;;;;;;;18.48;13.40;;;;;;;5.43;nan;100407.47;5030524;28;20095;-76
2021/10/29 04:33:07;;;;;;;15.00;10.73;;;;;;;5.45;nan;100408.19;5030515;28;20410;-76
2021/10/29 04:35:36;;;;;;;22.25;14.45;;;;;;;5.51;nan;100399.84;5030488;28;20384;-76
2021/10/29 04:38:04;;;;;;;25.52;13.95;;;;;;;5.44;nan;100401.28;5030687;28;20507;-76
2021/10/29 04:40:30;;;;;;;28.23;14.68;;;;;;;5.44;nan;100402.13;5030164;28;20086;-76
2021/10/29 04:42:55;;;;;;;20.98;14.50;;;;;;;5.44;nan;100399.50;5030328;28;20526;-76
2021/10/29 04:45:20;;;;;;;23.42;14.55;;;;;;;5.46;nan;100404.63;5029980;28;20041;-76
2021/10/29 04:47:46;;;;;;;28.58;16.50;;;;;;;5.43;nan;100386.50;5030256;28;20060;-76
2021/10/29 04:50:12;;;;;;;21.02;14.68;;;;;;;5.30;nan;100379.59;5028545;28;20053;-76
2021/10/29 04:52:37;;;;;;;25.80;14.43;;;;;;;5.37;nan;100381.75;5030430;28;20025;-77
2021/10/29 04:55:03;;;;;;;28.20;14.55;;;;;;;5.37;nan;100384.38;5030324;28;20045;-76
2021/10/29 04:57:28;;;;;;;37.72;16.42;;;;;;;5.40;nan;100377.09;5030271;28;20044;-76
2021/10/29 04:59:54;;;;;;;34.55;17.15;;;;;;;5.44;nan;100367.19;5028731;28;20025;-76
2021/10/29 05:02:20;;;;;;;22.45;15.98;;;;;;;5.38;nan;100370.31;5029487;28;20038;-76
2021/10/29 05:04:45;;;;;;;25.63;14.55;;;;;;;5.45;nan;100368.84;5029865;28;20392;-76
2021/10/29 05:07:11;;;;;;;33.33;16.83;;;;;;;5.53;nan;100372.53;5028770;28;20040;-76
2021/10/29 05:09:36;;;;;;;83.93;19.08;;;;;;;5.56;nan;100381.94;5029896;28;20096;-76
2021/10/29 05:12:01;;;;;;;72.32;18.67;;;;;;;5.47;nan;100380.06;5029456;28;20617;-76
2021/10/29 05:14:27;;;;;;;18.33;13.02;;;;;;;5.45;nan;100380.16;5027739;28;20164;-76
2021/10/29 05:16:52;;;;;;;19.92;11.43;;;;;;;5.51;nan;100378.88;5030251;28;20090;-76
2021/10/29 05:19:17;;;;;;;68.75;19.27;;;;;;;5.62;nan;100380.63;5028918;28;20034;-76
2021/10/29 05:21:43;;;;;;;19.08;13.43;;;;;;;5.48;nan;100381.72;5030230;28;20033;-76
2021/10/29 05:24:09;;;;;;;17.38;13.18;;;;;;;5.48;nan;100387.81;5029722;28;20034;-76
2021/10/29 05:26:34;;;;;;;16.90;11.43;;;;;;;5.58;nan;100376.56;5030277;28;20494;-76
2021/10/29 05:28:59;;;;;;;43.08;15.25;;;;;;;5.63;nan;100371.81;5030341;28;20410;-77
2021/10/29 05:31:25;;;;;;;67.25;16.45;;;;;;;5.65;nan;100370.72;5030216;28;20037;-76
2021/10/29 05:33:50;;;;;;;77.90;17.70;;;;;;;5.64;nan;100369.03;5030042;28;20410;-76
2021/10/29 05:36:16;;;;;;;38.33;14.05;;;;;;;5.58;nan;100364.31;5029513;28;20030;-76
2021/10/29 05:38:41;;;;;;;56.90;15.27;;;;;;;5.58;nan;100366.94;5029142;28;20323;-77
2021/10/29 05:41:06;;;;;;;78.38;18.02;;;;;;;5.59;nan;100360.72;5030413;28;20045;-76
2021/10/29 05:43:32;;;;;;;24.85;14.10;;;;;;;5.53;nan;100356.81;5030458;28;20083;-76
2021/10/29 05:45:57;;;;;;;89.07;19.55;;;;;;;5.47;nan;100353.84;5028586;28;20552;-76
2021/10/29 05:48:23;;;;;;;77.97;17.48;;;;;;;5.37;nan;100353.75;5029782;28;20406;-76
2021/10/29 05:50:50;;;;;;;27.05;13.60;;;;;;;5.35;nan;100354.81;5030443;28;20410;-77
2021/10/29 05:55:56;;;;;;;18.25;12.77;;;;;;;5.43;nan;100350.59;5030027;28;20137;-76
2021/10/29 05:58:22;;;;;;;53.90;15.27;;;;;;;5.48;nan;100345.00;5029759;28;20113;-76
2021/10/29 06:00:47;;;;;;;22.48;12.95;;;;;;;5.42;nan;100348.97;5029536;28;20449;-76
2021/10/29 06:03:13;;;;;;;18.13;12.00;;;;;;;5.34;nan;100354.00;5028317;28;20034;-76
2021/10/29 06:05:39;;;;;;;17.42;11.52;;;;;;;5.33;nan;100353.13;5029737;28;20163;-76
2021/10/29 06:08:05;;;;;;;21.20;10.60;;;;;;;5.36;nan;100357.31;5029423;28;20041;-77
2021/10/29 06:10:30;;;;;;;28.52;12.57;;;;;;;5.45;nan;100343.47;5030237;28;20045;-77
2021/10/29 06:12:56;;;;;;;49.17;15.90;;;;;;;5.42;nan;100348.97;5030077;28;20029;-77
2021/10/29 06:15:22;;;;;;;17.08;11.18;;;;;;;5.18;nan;100351.75;5029040;28;20077;-77
2021/10/29 06:17:47;;;;;;;36.88;13.98;;;;;;;5.20;nan;100346.41;5030696;28;20037;-77
2021/10/29 06:20:13;;;;;;;36.25;15.02;;;;;;;5.24;nan;100351.28;5031712;28;20454;-77
2021/10/29 06:22:43;;;;;;;56.10;15.63;;;;;;;5.11;nan;100340.91;5036977;28;20530;-76
2021/10/29 06:25:13;;;;;;;16.13;11.87;;;;;;;4.90;nan;100343.41;5036108;28;20058;-76
2021/10/29 06:30:05;;;;;;;14.32;10.60;;;;;;;4.86;nan;100341.16;5036412;28;20026;-76
2021/10/29 06:32:31;;;;;;;34.40;13.70;;;;;;;4.91;nan;100331.19;5035136;28;20037;-76
2021/10/29 06:34:57;;;;;;;20.35;11.50;;;;;;;4.89;nan;100326.03;5035603;28;20095;-76
2021/10/29 06:37:22;;;;;;;13.93;10.68;;;;;;;4.84;nan;100332.59;5034941;28;20026;-76
2021/10/29 06:39:50;;;;;;;13.02;9.90;;;;;;;4.86;nan;100328.91;5034831;28;20083;-76
2021/10/29 06:42:29;;;;;;;13.55;9.85;;;;;;;4.87;nan;100329.75;5033772;28;20311;-76
2021/10/29 07:01:14;;;;;;;13.38;9.57;;;;;;;5.24;nan;100360.91;5013954;28;20065;-77
2021/10/29 07:42:06;;;;;;;11.13;8.35;;;;;;;5.63;nan;100341.16;5032646;28;20076;-76
2021/10/29 07:44:32;;;;;;;13.93;9.68;;;;;;;5.70;nan;100341.50;5031255;28;20097;-77
2021/10/29 07:46:58;;;;;;;16.85;11.40;;;;;;;5.80;nan;100338.94;5032534;28;20094;-77
2021/10/29 07:49:28;;;;;;;15.52;10.60;;;;;;;5.75;nan;100334.06;5031184;28;20299;-77
2021/10/29 07:51:54;;;;;;;12.52;9.40;;;;;;;5.63;nan;100332.47;5032817;28;20316;-77
2021/10/29 07:54:20;;;;;;;14.68;10.70;;;;;;;5.69;nan;100339.81;5030171;28;20516;-77
2021/10/29 07:56:45;;;;;;;12.48;9.82;;;;;;;5.72;nan;100340.41;5031171;28;20129;-76
2021/10/29 07:59:11;;;;;;;17.05;10.18;;;;;;;5.78;nan;100339.06;5032181;28;20034;-76
2021/10/29 08:01:36;;;;;;;12.98;9.38;;;;;;;5.89;nan;100344.28;5032000;28;20048;-76
2021/10/29 08:04:01;;;;;;;11.30;9.18;;;;;;;5.94;nan;100346.56;5031802;28;20029;-76
2021/10/29 08:06:26;;;;;;;14.98;10.15;;;;;;;6.03;nan;100355.44;5032339;28;20037;-77
2021/10/29 08:08:52;;;;;;;30.88;11.55;;;;;;;6.16;nan;100351.69;5032264;28;20052;-77
2021/10/29 08:11:17;;;;;;;16.42;11.23;;;;;;;6.03;nan;100356.31;5032012;28;20111;-76
2021/10/29 08:13:42;;;;;;;13.85;10.18;;;;;;;6.06;nan;100355.22;5031636;28;20029;-76
2021/10/29 08:16:08;;;;;;;40.40;12.68;;;;;;;6.15;nan;100359.72;5031332;28;20048;-77
2021/10/29 08:18:40;;;;;;;40.55;13.50;;;;;;;6.19;nan;100370.78;5032267;28;20037;-77
2021/10/29 08:21:06;;;;;;;16.55;11.45;;;;;;;6.13;nan;100365.06;5032308;28;20052;-77
2021/10/29 08:23:31;;;;;;;17.42;11.65;;;;;;;6.08;nan;100369.88;5031741;28;20038;-76
2021/10/29 08:25:56;;;;;;;14.23;10.80;;;;;;;6.09;nan;100371.53;5031466;28;20104;-76
2021/10/29 08:28:22;;;;;;;16.45;11.60;;;;;;;6.18;nan;100369.13;5029785;28;20037;-76
2021/10/29 08:30:47;;;;;;;18.88;11.05;;;;;;;6.26;nan;100366.66;5030063;28;20049;-76
2021/10/29 08:33:12;;;;;;;17.60;12.45;;;;;;;6.30;nan;100373.34;5031534;28;20036;-76
2021/10/29 08:35:38;;;;;;;17.73;12.82;;;;;;;6.33;nan;100370.44;5031471;28;20052;-76
2021/10/29 08:38:03;;;;;;;29.20;16.30;;;;;;;6.29;nan;100369.88;5031499;28;20494;-76
2021/10/29 08:40:28;;;;;;;36.03;17.63;;;;;;;6.24;nan;100372.03;5031233;28;20045;-76
2021/10/29 08:42:54;;;;;;;37.63;18.27;;;;;;;6.22;nan;100365.25;5031356;28;20044;-76
2021/10/29 08:45:19;;;;;;;42.38;17.80;;;;;;;6.27;nan;100361.31;5031326;28;20030;-76
2021/10/29 08:47:46;;;;;;;41.33;20.05;;;;;;;6.17;nan;100381.38;5031476;28;20029;-76
2021/10/29 08:50:17;;;;;;;68.18;23.65;;;;;;;6.22;nan;100379.25;5011071;28;20034;-76
2021/10/29 08:52:45;;;;;;;42.88;21.88;;;;;;;6.24;nan;100385.16;5011665;28;20026;-76
2021/10/29 08:55:12;;;;;;;39.97;20.33;;;;;;;6.24;nan;100385.16;5011350;28;20037;-76
2021/10/29 08:57:38;;;;;;;35.28;19.40;;;;;;;6.31;nan;100385.50;5011403;28;20026;-77
2021/10/29 09:00:11;;;;;;;35.53;18.75;;;;;;;6.42;nan;100382.81;5010887;28;20096;-76
2021/10/29 09:03:12;;;;;;;63.28;22.15;;;;;;;6.54;nan;100380.97;5011291;28;20038;-76
2021/10/29 09:05:52;;;;;;;45.23;20.20;;;;;;;6.54;nan;100380.97;5011537;28;20101;-76
2021/10/29 09:16:34;;;;;;;46.50;21.13;;;;;;;6.75;nan;100365.16;5029303;28;20043;-76
2021/10/29 09:33:07;;;;;;;28.55;17.20;;;;;;;6.91;nan;100362.91;5031224;28;20075;-77
2021/10/29 09:35:36;;;;;;;28.02;16.55;;;;;;;6.93;nan;100347.81;5011419;28;20040;-77
2021/10/29 09:38:09;;;;;;;41.50;19.42;;;;;;;6.91;nan;100356.78;5011864;28;20057;-76
2021/10/29 09:41:00;;;;;;;25.50;16.33;;;;;;;6.92;nan;100350.56;5010698;28;20038;-76
2021/10/29 09:43:26;;;;;;;24.25;14.88;;;;;;;6.94;nan;100348.66;5009494;28;20029;-76
2021/10/29 09:45:58;;;;;;;25.75;16.20;;;;;;;6.97;nan;100351.84;5011025;28;20384;-76
2021/10/29 09:48:31;;;;;;;22.42;14.52;;;;;;;7.10;nan;100356.03;5015731;28;20041;-76
2021/10/29 09:50:58;;;;;;;29.05;18.15;;;;;;;7.13;nan;100347.88;5030812;28;20034;-77
2021/10/29 09:53:40;;;;;;;42.50;22.05;;;;;;;7.28;nan;100348.34;5030859;28;20052;-77
2021/10/29 09:56:12;;;;;;;34.47;19.98;;;;;;;7.20;nan;100354.28;5030500;28;20598;-77
2021/10/29 09:58:40;;;;;;;39.17;20.55;;;;;;;7.36;nan;100351.13;5029342;28;20326;-77
2021/10/29 10:01:06;;;;;;;30.30;17.92;;;;;;;7.38;nan;100339.50;5032573;28;20103;-77
2021/10/29 10:03:32;;;;;;;37.05;19.02;;;;;;;7.41;nan;100347.13;5034869;28;20029;-76
2021/10/29 10:05:58;;;;;;;39.17;20.13;;;;;;;7.23;nan;100346.13;5034304;28;20044;-76
2021/10/29 10:08:26;;;;;;;28.13;17.23;;;;;;;7.15;nan;100341.53;5034462;28;20083;-77
2021/10/29 10:10:53;;;;;;;32.30;18.48;;;;;;;7.10;nan;100337.63;5034391;28;20044;-76
2021/10/29 10:13:20;;;;;;;32.13;17.92;;;;;;;7.31;nan;100330.47;5032717;28;20043;-77
2021/10/29 10:15:48;;;;;;;44.25;19.38;;;;;;;7.41;nan;100320.81;5033575;28;20038;-77
2021/10/29 10:18:15;;;;;;;29.88;18.42;;;;;;;7.36;nan;100317.75;5034209;28;20618;-77
2021/10/29 10:20:43;;;;;;;34.50;18.88;;;;;;;7.22;nan;100312.88;5034593;28;20056;-77
2021/10/29 10:23:12;;;;;;;26.08;16.65;;;;;;;7.23;nan;100309.28;5034958;28;20400;-76
2021/10/29 10:26:04;;;;;;;36.85;17.25;;;;;;;7.45;nan;100305.59;5034824;28;20025;-77
2021/10/29 10:28:49;;;;;;;35.30;19.25;;;;;;;7.66;nan;100298.38;5034094;28;20036;-77
2021/10/29 10:40:45;;;;;;;25.77;15.57;;;;;;;7.97;nan;100295.59;5033981;28;20035;-77
2021/10/29 10:45:36;;;;;;;27.80;17.15;;;;;;;8.23;nan;100280.03;5034184;28;20029;-77
2021/10/29 10:48:11;;;;;;;28.88;16.77;;;;;;;8.47;nan;100268.22;5033726;28;20072;-77
2021/10/29 10:50:41;;;;;;;21.63;13.65;;;;;;;8.58;nan;100259.28;5034431;28;20070;-77
2021/10/29 10:53:13;;;;;;;24.80;13.75;;;;;;;8.73;nan;100257.81;5034333;28;20034;-77
2021/10/29 10:56:08;;;;;;;25.77;16.33;;;;;;;8.76;nan;100264.63;5034269;28;20120;-77
2021/10/29 10:59:42;;;;;;;22.27;15.05;;;;;;;8.43;nan;100253.66;5033654;28;20026;-77
2021/10/29 11:07:03;;;;;;;24.27;15.35;;;;;;;8.63;nan;100242.06;5033731;28;20456;-77
2021/10/29 11:09:56;;;;;;;20.90;13.45;;;;;;;8.61;nan;100236.09;5034594;28;20111;-77
2021/10/29 11:12:40;;;;;;;19.77;13.23;;;;;;;8.65;nan;100224.31;5031814;28;20050;-77
2021/10/29 11:15:14;;;;;;;16.63;11.85;;;;;;;8.97;nan;100220.34;5034597;28;20033;-77
2021/10/29 11:17:42;;;;;;;18.05;13.35;;;;;;;9.16;nan;100215.94;5035312;28;20033;-77
2021/10/29 11:20:09;;;;;;;15.95;11.50;;;;;;;9.10;nan;100212.06;5034408;28;20030;-77
2021/10/29 11:22:46;;;;;;;20.60;13.57;;;;;;;9.13;nan;100209.97;5032242;28;20525;-77
2021/10/29 11:25:18;;;;;;;24.25;15.93;;;;;;;9.21;nan;100214.50;5034408;28;20037;-77
2021/10/29 11:27:43;;;;;;;20.67;13.75;;;;;;;9.28;nan;100206.81;5033587;28;20561;-77
2021/10/29 11:30:09;;;;;;;27.65;17.98;;;;;;;9.21;nan;100209.22;5032337;28;20119;-77
2021/10/29 11:32:35;;;;;;;24.77;15.15;;;;;;;9.54;nan;100212.16;5039334;28;20097;-77
2021/10/29 11:35:03;;;;;;;24.42;15.93;;;;;;;9.63;nan;100203.31;5039708;28;20045;-77
2021/10/29 11:37:33;;;;;;;22.25;14.38;;;;;;;9.51;nan;100196.59;5040229;28;20034;-77
2021/10/29 11:40:00;;;;;;;21.00;14.30;;;;;;;9.47;nan;100196.09;5038803;28;20092;-77
2021/10/29 11:42:28;;;;;;;21.85;14.77;;;;;;;9.58;nan;100192.34;5033018;28;20738;-77
2021/10/29 11:44:54;;;;;;;17.77;13.02;;;;;;;9.49;nan;100194.13;5033047;28;20094;-77
2021/10/29 11:47:20;;;;;;;23.08;15.32;;;;;;;9.60;nan;100198.31;5032999;28;20095;-77
2021/10/29 11:49:45;;;;;;;16.98;12.82;;;;;;;9.57;nan;100188.91;5032663;28;20037;-77
2021/10/29 11:52:11;;;;;;;22.67;15.82;;;;;;;9.62;nan;100185.81;5032409;28;20394;-77
2021/10/29 11:54:41;;;;;;;26.13;18.42;;;;;;;9.64;nan;100186.47;5032320;28;20076;-77
2021/10/29 12:00:41;;;;;;;28.70;18.20;;;;;;;9.76;nan;100173.84;5032569;28;20117;-77
2021/10/29 12:07:56;;;;;;;22.58;16.65;;;;;;;9.67;nan;100170.31;5032868;28;20056;-77
2021/10/29 12:10:22;;;;;;;24.00;17.42;;;;;;;9.78;nan;100170.06;5032049;28;20079;-77
2021/10/29 12:12:50;;;;;;;25.45;18.02;;;;;;;9.75;nan;100161.66;5032529;28;20036;-77
2021/10/29 12:15:25;;;;;;;25.17;17.95;;;;;;;9.84;nan;100146.66;5032074;28;20080;-77
2021/10/29 12:18:04;;;;;;;24.52;17.25;;;;;;;9.86;nan;100161.38;5032910;28;20029;-77
2021/10/29 12:20:38;;;;;;;19.17;14.35;;;;;;;9.93;nan;100157.13;5031781;28;20034;-77
2021/10/29 12:23:09;;;;;;;18.88;14.18;;;;;;;9.98;nan;100159.28;5032105;28;20582;-77
2021/10/29 12:54:07;;;;;;;21.20;16.75;;;;;;;11.10;nan;100091.22;5011772;28;20065;-77
2021/10/29 13:01:50;;;;;;;23.55;17.70;;;;;;;11.49;nan;100067.53;5011726;28;20042;-77
2021/10/29 13:04:20;;;;;;;22.67;16.40;;;;;;;11.43;nan;100062.88;5011288;28;20383;-77
2021/10/29 13:06:48;;;;;;;22.25;17.63;;;;;;;11.29;nan;100053.00;5011285;28;20383;-77
2021/10/29 13:09:20;;;;;;;19.83;15.73;;;;;;;11.18;nan;100051.53;5011220;28;20037;-77
2021/10/29 13:11:48;;;;;;;21.95;16.27;;;;;;;11.37;nan;100051.16;5011072;28;20042;-77
2021/10/29 13:14:20;;;;;;;20.70;15.43;;;;;;;11.42;nan;100045.38;5013406;28;20033;-77
2021/10/29 13:16:45;;;;;;;19.65;15.55;;;;;;;11.52;nan;100040.69;5029585;28;20037;-77
2021/10/29 13:19:30;;;;;;;18.42;14.77;;;;;;;11.55;nan;100037.69;5030691;28;20044;-77
2021/10/29 13:22:47;;;;;;;21.38;15.63;;;;;;;11.77;nan;100033.47;5030963;28;20033;-77
2021/10/29 13:25:39;;;;;;;18.42;14.88;;;;;;;11.80;nan;100019.91;5030813;28;20036;-77
2021/10/29 13:59:50;;;;;;;14.93;11.70;;;;;;;12.47;nan;100007.97;5030178;28;20030;-77
2021/10/29 14:29:35;;;;;;;10.40;8.45;;;;;;;11.80;nan;100013.78;5029977;28;20087;-77
2021/10/29 14:32:39;;;;;;;10.45;8.10;;;;;;;11.76;nan;100007.19;5030151;28;20042;-77
2021/10/29 14:34:54;;;;;;;9.07;7.75;;;;;;;11.66;nan;100007.38;5029130;28;20040;-77
2021/10/29 14:37:45;;;;;;;6.97;5.90;;;;;;;11.62;nan;100006.06;5029859;28;20030;-77
2021/10/29 14:40:48;;;;;;;6.80;5.28;;;;;;;11.61;nan;100005.25;5029250;28;20065;-77
2021/10/29 14:43:15;;;;;;;6.97;5.72;;;;;;;11.57;nan;100005.75;5028299;28;20426;-77
2021/10/29 15:31:11;;;;;;;14.10;11.05;;;;;;;11.59;nan;99979.94;4990964;28;20443;-77
2021/10/29 15:33:46;;;;;;;10.05;8.02;;;;;;;11.57;nan;99980.09;5021876;28;20033;-77
2021/10/29 15:45:05;;;;;;;16.20;12.60;;;;;;;11.08;nan;99990.81;4960591;28;20066;-77
2021/10/29 15:47:58;;;;;;;16.52;12.77;;;;;;;10.99;nan;99981.28;5032293;28;20061;-77
2021/10/29 15:50:30;;;;;;;13.85;10.00;;;;;;;10.94;nan;99975.63;5011975;28;20038;-77
2021/10/29 15:52:56;;;;;;;13.43;10.43;;;;;;;10.86;nan;99975.66;5012921;28;20448;-77
2021/10/29 15:56:09;;;;;;;12.13;8.93;;;;;;;10.84;nan;99973.16;5012488;28;20112;-77
2021/10/29 16:17:37;;;;;;;15.20;10.65;;;;;;;10.35;nan;99959.97;5031344;28;20159;-77
2021/10/29 16:20:03;;;;;;;18.80;13.55;;;;;;;10.23;nan;99967.38;5030625;28;20510;-77
2021/10/29 16:22:33;;;;;;;20.33;14.98;;;;;;;10.04;nan;99959.75;5032481;28;20029;-77
2021/10/29 16:30:08;;;;;;;14.05;10.75;;;;;;;9.80;nan;99971.88;5013117;28;20038;-77